createdAt,value
2022-11-15T00:02:18.737Z,95.71
2022-11-15T00:05:04.020Z,95.57
2022-11-15T00:07:55.525Z,95.73
2022-11-15T00:10:41.192Z,95.79
2022-11-15T00:13:26.813Z,95.80
2022-11-15T00:16:11.935Z,96.18
2022-11-15T00:18:58.359Z,96.30
2022-11-15T00:21:43.320Z,95.95
2022-11-15T00:24:28.165Z,96.42
2022-11-15T00:27:13.490Z,98.11
2022-11-15T00:29:58.786Z,97.92
2022-11-15T00:32:44.396Z,96.91
2022-11-15T00:35:30.004Z,96.52
2022-11-15T00:38:15.436Z,97.10
2022-11-15T00:41:05.031Z,97.14
2022-11-15T00:43:54.290Z,96.73
2022-11-15T00:46:39.328Z,96.34
2022-11-15T00:49:24.237Z,96.78
2022-11-15T00:52:09.809Z,96.86
2022-11-15T00:54:54.692Z,96.69
2022-11-15T00:57:39.904Z,96.36
2022-11-15T01:00:24.994Z,96.87
2022-11-15T01:03:10.101Z,97.51
2022-11-15T01:05:55.145Z,97.24
2022-11-15T01:08:40.940Z,97.25
2022-11-15T01:11:26.179Z,97.16
2022-11-15T01:14:11.609Z,96.84
2022-11-15T01:16:56.893Z,96.96
2022-11-15T01:19:41.812Z,97.26
2022-11-15T01:22:27.179Z,97.43
2022-11-15T01:25:12.599Z,97.58
2022-11-15T01:27:57.780Z,97.37
2022-11-15T01:30:43.162Z,96.99
2022-11-15T01:33:29.761Z,97.10
2022-11-15T01:36:22.588Z,96.90
2022-11-15T01:39:08.968Z,96.10
2022-11-15T01:41:54.194Z,96.22
2022-11-15T01:44:43.291Z,96.28
2022-11-15T01:47:42.241Z,96.48
2022-11-15T01:50:32.392Z,96.86
2022-11-15T01:53:20.137Z,96.77
2022-11-15T01:56:08.944Z,97.12
2022-11-15T01:58:56.444Z,97.67
2022-11-15T02:01:42.651Z,97.67
2022-11-15T02:04:33.697Z,98.14
2022-11-15T02:07:22.586Z,97.99
2022-11-15T02:10:28.344Z,98.57
2022-11-15T02:13:16.165Z,98.89
2022-11-15T02:16:17.477Z,98.61
2022-11-15T02:19:29.634Z,99.00
2022-11-15T02:22:38.325Z,98.90
2022-11-15T02:25:41.802Z,98.87
2022-11-15T02:28:54.250Z,99.72
2022-11-15T02:32:07.365Z,100.00
2022-11-15T02:34:57.335Z,100.00
2022-11-15T02:37:48.187Z,100.00
2022-11-15T02:40:42.725Z,100.00
2022-11-15T02:43:59.701Z,100.00
2022-11-15T02:47:19.398Z,100.00
2022-11-15T02:50:11.273Z,100.00
2022-11-15T02:52:56.813Z,100.00
2022-11-15T02:55:50.244Z,100.00
2022-11-15T02:59:05.893Z,100.00
2022-11-15T03:02:28.040Z,100.00
2022-11-15T03:05:24.834Z,100.00
2022-11-15T03:08:32.779Z,100.00
2022-11-15T03:11:20.665Z,100.00
2022-11-15T03:14:28.809Z,100.00
2022-11-15T03:17:17.549Z,100.00
2022-11-15T03:20:07.013Z,100.00
2022-11-15T03:22:55.275Z,100.00
2022-11-15T03:25:46.250Z,100.00
2022-11-15T03:28:57.924Z,100.00
2022-11-15T03:31:51.690Z,100.00
2022-11-15T03:34:45.055Z,100.00
2022-11-15T03:37:41.504Z,100.00
2022-11-15T03:40:34.525Z,99.61
2022-11-15T03:43:31.573Z,100.00
2022-11-15T03:46:34.800Z,99.18
2022-11-15T03:49:32.033Z,98.89
2022-11-15T03:52:20.048Z,98.25
2022-11-15T03:55:07.659Z,97.53
2022-11-15T03:57:56.921Z,95.94
2022-11-15T04:00:41.971Z,95.54
2022-11-15T04:03:26.687Z,95.30
2022-11-15T04:06:11.897Z,95.06
2022-11-15T04:08:56.912Z,95.23
2022-11-15T04:11:41.782Z,95.53
2022-11-15T04:14:27.091Z,95.55
2022-11-15T04:17:12.233Z,95.73
2022-11-15T04:20:15.811Z,95.23
2022-11-15T04:23:22.265Z,95.56
2022-11-15T04:26:15.746Z,95.90
2022-11-15T04:29:19.392Z,95.93
2022-11-15T04:32:06.743Z,95.97
2022-11-15T04:34:52.004Z,96.33
2022-11-15T04:37:36.773Z,96.46
2022-11-15T04:40:22.052Z,96.20
2022-11-15T04:43:07.064Z,96.02
2022-11-15T04:45:51.929Z,96.50
2022-11-15T04:48:36.865Z,95.83
2022-11-15T04:51:22.094Z,95.29
2022-11-15T04:54:07.319Z,95.17
2022-11-15T04:56:52.696Z,94.85
2022-11-15T04:59:38.052Z,94.91
2022-11-15T05:02:22.980Z,94.60
2022-11-15T05:05:08.363Z,94.46
2022-11-15T05:07:53.649Z,94.81
2022-11-15T05:10:38.734Z,94.19
2022-11-15T05:13:23.889Z,94.18
2022-11-15T05:16:09.144Z,94.05
2022-11-15T05:18:55.385Z,94.17
2022-11-15T05:21:40.640Z,93.96
2022-11-15T05:24:25.456Z,94.09
2022-11-15T05:27:10.705Z,94.30
2022-11-15T05:29:56.040Z,93.90
2022-11-15T05:32:41.029Z,93.81
2022-11-15T05:35:37.922Z,93.89
2022-11-15T05:38:24.587Z,93.94
2022-11-15T05:41:10.056Z,93.71
2022-11-15T05:43:55.320Z,93.59
2022-11-15T05:46:42.219Z,93.09
2022-11-15T05:49:32.469Z,92.67
2022-11-15T05:52:21.305Z,92.63
2022-11-15T05:55:09.534Z,93.04
2022-11-15T05:57:54.789Z,92.25
2022-11-15T06:00:40.335Z,91.89
2022-11-15T06:03:25.361Z,92.44
2022-11-15T06:06:16.098Z,92.42
2022-11-15T06:09:01.969Z,92.68
2022-11-15T06:11:47.162Z,92.90
2022-11-15T06:14:32.593Z,93.10
2022-11-15T06:17:17.740Z,92.56
2022-11-15T06:20:04.340Z,92.17
2022-11-15T06:22:49.118Z,92.12
2022-11-15T06:25:34.328Z,91.79
2022-11-15T06:28:19.675Z,91.03
2022-11-15T06:31:14.507Z,90.70
2022-11-15T06:33:59.334Z,90.59
2022-11-15T06:36:44.725Z,90.71
2022-11-15T06:39:29.559Z,91.28
2022-11-15T06:42:15.144Z,91.71
2022-11-15T06:45:00.625Z,91.58
2022-11-15T06:47:47.551Z,91.40
2022-11-15T06:50:32.630Z,91.95
2022-11-15T06:53:17.594Z,91.88
2022-11-15T06:56:04.520Z,92.59
2022-11-15T06:58:49.688Z,92.55
2022-11-15T07:01:34.976Z,92.83
2022-11-15T07:04:19.893Z,93.38
2022-11-15T07:07:04.947Z,93.73
2022-11-15T07:09:49.971Z,93.50
2022-11-15T07:12:35.413Z,94.09
2022-11-15T07:15:22.928Z,94.49
2022-11-15T07:18:08.012Z,94.83
2022-11-15T07:20:52.712Z,95.40
2022-11-15T07:23:39.078Z,96.13
2022-11-15T07:26:24.273Z,96.45
2022-11-15T07:29:09.284Z,96.19
2022-11-15T07:31:54.642Z,97.05
2022-11-15T07:34:39.765Z,96.49
2022-11-15T07:37:25.037Z,96.47
2022-11-15T07:40:10.491Z,96.53
2022-11-15T07:43:03.165Z,96.42
2022-11-15T07:45:48.049Z,95.96
2022-11-15T07:48:43.555Z,95.73
2022-11-15T07:51:29.704Z,95.56
2022-11-15T07:54:15.284Z,95.67
2022-11-15T07:57:05.492Z,94.85
2022-11-15T07:59:52.275Z,93.38
2022-11-15T08:02:37.712Z,91.27
2022-11-15T08:05:22.767Z,91.87
2022-11-15T08:08:10.154Z,91.28
2022-11-15T08:10:55.351Z,91.66
2022-11-15T08:13:40.013Z,91.64
2022-11-15T08:16:25.361Z,91.36
2022-11-15T08:19:10.195Z,92.02
2022-11-15T08:21:55.422Z,91.76
2022-11-15T08:24:40.669Z,92.08
2022-11-15T08:27:25.646Z,92.23
2022-11-15T08:30:12.026Z,92.38
2022-11-15T08:32:58.990Z,92.43
2022-11-15T08:35:44.943Z,92.54
2022-11-15T08:38:31.440Z,91.83
2022-11-15T08:41:27.729Z,91.90
2022-11-15T08:44:12.589Z,91.46
2022-11-15T08:46:57.862Z,91.02
2022-11-15T08:49:43.136Z,90.57
2022-11-15T08:52:28.356Z,89.99
2022-11-15T08:55:13.358Z,90.07
2022-11-15T08:57:59.057Z,89.85
2022-11-15T09:00:44.016Z,89.61
2022-11-15T09:03:29.494Z,88.58
2022-11-15T09:06:14.961Z,88.55
2022-11-15T09:09:02.109Z,87.45
2022-11-15T09:11:47.724Z,85.28
2022-11-15T09:14:32.933Z,85.58
2022-11-15T09:17:23.234Z,85.21
2022-11-15T09:20:10.061Z,83.97
2022-11-15T09:22:55.400Z,84.40
2022-11-15T09:25:40.379Z,83.34
2022-11-15T09:28:25.530Z,83.29
2022-11-15T09:31:11.150Z,83.00
2022-11-15T09:33:56.597Z,83.03
2022-11-15T09:36:41.847Z,82.68
2022-11-15T09:39:27.049Z,82.25
2022-11-15T09:42:42.793Z,82.26
2022-11-15T09:45:31.630Z,81.47
2022-11-15T09:48:44.696Z,80.75
2022-11-15T09:51:54.410Z,80.37
2022-11-15T09:57:36.031Z,78.52
2022-11-15T10:00:46.444Z,78.89
2022-11-15T10:03:37.091Z,78.27
2022-11-15T10:06:06.060Z,77.34
2022-11-15T10:08:51.614Z,77.95
2022-11-15T10:11:40.944Z,78.17
2022-11-15T10:14:26.490Z,76.38
2022-11-15T10:17:11.289Z,77.35
2022-11-15T10:20:05.661Z,76.31
2022-11-15T10:22:49.946Z,77.14
2022-11-15T10:25:25.927Z,77.11
2022-11-15T10:27:57.302Z,77.02
2022-11-15T10:30:29.620Z,75.61
2022-11-15T10:32:56.073Z,76.04
2022-11-15T10:35:28.912Z,75.39
2022-11-15T10:38:10.141Z,76.07
2022-11-15T10:40:38.642Z,75.61
2022-11-15T10:43:19.350Z,75.07
2022-11-15T10:45:47.397Z,75.43
2022-11-15T10:48:13.848Z,75.13
2022-11-15T10:50:43.571Z,74.98
2022-11-15T10:53:28.157Z,74.20
2022-11-15T10:55:57.597Z,74.35
2022-11-15T10:58:39.062Z,73.80
2022-11-15T11:01:20.864Z,74.17
2022-11-15T11:04:35.199Z,73.38
2022-11-15T11:07:01.783Z,72.95
2022-11-15T11:09:36.417Z,72.19
2022-11-15T11:12:30.311Z,72.48
2022-11-15T11:14:56.849Z,73.19
2022-11-15T11:17:52.334Z,73.40
2022-11-15T11:20:39.398Z,72.68
2022-11-15T11:23:44.075Z,71.94
2022-11-15T11:26:41.263Z,70.07
2022-11-15T11:29:33.099Z,70.79
2022-11-15T11:32:38.968Z,70.19
2022-11-15T11:35:18.591Z,70.50
2022-11-15T11:37:51.270Z,69.62
2022-11-15T11:40:56.312Z,69.67
2022-11-15T11:43:41.197Z,68.63
2022-11-15T11:46:39.702Z,68.90
2022-11-15T11:49:13.216Z,69.28
2022-11-15T11:51:45.075Z,67.80
2022-11-15T11:54:37.896Z,66.09
2022-11-15T11:57:18.187Z,65.37
2022-11-15T11:59:51.769Z,65.26
2022-11-15T12:02:30.098Z,65.36
2022-11-15T12:05:05.186Z,65.45
2022-11-15T12:07:36.814Z,65.18
2022-11-15T12:10:16.199Z,65.12
2022-11-15T12:12:51.485Z,64.56
2022-11-15T12:15:23.200Z,64.68
2022-11-15T12:17:50.243Z,64.89
2022-11-15T12:20:22.482Z,65.65
2022-11-15T12:23:00.064Z,66.52
2022-11-15T12:25:49.156Z,66.42
2022-11-15T12:29:06.491Z,66.96
2022-11-15T12:31:44.813Z,66.32
2022-11-15T12:34:29.601Z,66.45
2022-11-15T12:36:56.852Z,66.38
2022-11-15T12:40:04.020Z,66.04
2022-11-15T12:42:30.887Z,67.40
2022-11-15T12:44:59.919Z,67.63
2022-11-15T12:47:27.646Z,68.18
2022-11-15T12:49:54.848Z,67.46
2022-11-15T12:52:21.614Z,67.38
2022-11-15T12:54:54.638Z,67.73
2022-11-15T12:57:21.061Z,67.74
2022-11-15T13:00:04.117Z,67.04
2022-11-15T13:02:39.686Z,65.85
2022-11-15T13:05:21.392Z,65.78
2022-11-15T13:07:47.938Z,65.37
2022-11-15T13:10:14.604Z,65.08
2022-11-15T13:12:47.061Z,65.81
2022-11-15T13:15:13.479Z,65.71
2022-11-15T13:17:50.860Z,65.51
2022-11-15T13:20:17.393Z,66.11
2022-11-15T13:22:55.653Z,66.15
2022-11-15T13:25:40.220Z,66.68
2022-11-15T13:28:15.575Z,67.00
2022-11-15T13:31:22.475Z,67.25
2022-11-15T13:33:49.477Z,66.64
2022-11-15T13:36:23.852Z,67.14
2022-11-15T13:38:58.759Z,67.38
2022-11-15T13:41:36.910Z,67.43
2022-11-15T13:44:05.251Z,67.57
2022-11-15T13:46:36.031Z,68.29
2022-11-15T13:49:13.263Z,69.40
2022-11-15T13:51:52.600Z,69.74
2022-11-15T13:54:42.713Z,70.30
2022-11-15T13:57:26.237Z,70.88
2022-11-15T13:59:54.997Z,70.85
2022-11-15T14:02:33.461Z,71.44
2022-11-15T14:05:15.089Z,71.75
2022-11-15T14:07:58.515Z,72.43
2022-11-15T14:10:32.349Z,72.96
2022-11-15T14:12:59.210Z,73.33
2022-11-15T14:15:30.016Z,73.14
2022-11-15T14:17:56.516Z,73.52
2022-11-15T14:20:36.521Z,74.29
2022-11-15T14:23:25.196Z,74.52
2022-11-15T14:25:56.950Z,74.05
2022-11-15T14:28:23.316Z,73.82
2022-11-15T14:30:52.523Z,73.53
2022-11-15T14:33:30.435Z,74.46
2022-11-15T14:35:58.660Z,73.61
2022-11-15T14:38:26.507Z,73.96
2022-11-15T14:40:53.032Z,74.54
2022-11-15T14:43:19.779Z,74.11
2022-11-15T14:45:46.572Z,74.33
2022-11-15T14:48:13.023Z,75.03
2022-11-15T14:50:39.871Z,75.12
2022-11-15T14:53:07.080Z,74.60
2022-11-15T14:55:37.170Z,74.35
2022-11-15T14:58:04.513Z,74.27
2022-11-15T15:00:35.324Z,74.49
2022-11-15T15:03:02.874Z,75.54
2022-11-15T15:05:44.043Z,75.65
2022-11-15T15:08:11.866Z,76.33
2022-11-15T15:10:42.530Z,76.77
2022-11-15T15:13:21.734Z,76.49
2022-11-15T15:15:49.812Z,76.92
2022-11-15T15:18:16.675Z,77.00
2022-11-15T15:20:44.464Z,76.90
2022-11-15T15:23:19.568Z,77.18
2022-11-15T15:25:48.777Z,77.53
2022-11-15T15:28:15.771Z,77.81
2022-11-15T15:30:42.588Z,77.19
2022-11-15T15:33:09.204Z,77.41
2022-11-15T15:35:36.179Z,76.82
2022-11-15T15:38:04.463Z,76.96
2022-11-15T15:40:33.488Z,77.27
2022-11-15T15:43:00.188Z,78.05
2022-11-15T15:45:29.165Z,77.76
2022-11-15T15:47:55.794Z,77.65
2022-11-15T15:50:22.631Z,77.98
2022-11-15T15:52:50.243Z,78.09
2022-11-15T15:55:16.778Z,78.52
2022-11-15T15:57:43.429Z,78.76
2022-11-15T16:00:10.888Z,78.99
2022-11-15T16:02:40.978Z,78.49
2022-11-15T16:05:13.082Z,79.43
2022-11-15T16:07:40.979Z,78.94
2022-11-15T16:10:26.885Z,78.94
2022-11-15T16:12:54.734Z,79.57
2022-11-15T16:15:22.852Z,79.65
2022-11-15T16:17:54.861Z,79.85
2022-11-15T16:20:33.010Z,79.61
2022-11-15T16:23:04.319Z,79.67
2022-11-15T16:25:56.433Z,80.68
2022-11-15T16:28:25.427Z,80.68
2022-11-15T16:31:05.376Z,80.49
2022-11-15T16:33:33.211Z,79.74
2022-11-15T16:35:59.958Z,80.06
2022-11-15T16:38:26.561Z,80.02
2022-11-15T16:40:53.014Z,79.98
2022-11-15T16:43:19.596Z,79.89
2022-11-15T16:45:46.851Z,79.70
2022-11-15T16:48:23.659Z,79.66
2022-11-15T16:50:50.641Z,79.86
2022-11-15T16:53:17.434Z,78.80
2022-11-15T16:55:44.135Z,79.62
2022-11-15T16:58:10.671Z,78.76
2022-11-15T17:00:37.169Z,78.73
2022-11-15T17:03:04.290Z,78.33
2022-11-15T17:05:30.793Z,79.10
2022-11-15T17:07:57.342Z,78.48
2022-11-15T17:10:26.108Z,78.82
2022-11-15T17:12:55.326Z,78.85
2022-11-15T17:15:22.753Z,78.62
2022-11-15T17:17:53.850Z,78.75
2022-11-15T17:20:22.961Z,79.10
2022-11-15T17:22:49.768Z,78.64
2022-11-15T17:25:16.750Z,79.41
2022-11-15T17:27:43.233Z,79.03
2022-11-15T17:30:19.984Z,78.24
2022-11-15T17:32:47.877Z,78.35
2022-11-15T17:35:15.962Z,78.28
2022-11-15T17:37:43.294Z,79.17
2022-11-15T17:40:10.386Z,79.19
2022-11-15T17:42:37.144Z,79.20
2022-11-15T17:45:09.317Z,78.56
2022-11-15T17:47:36.673Z,78.89
2022-11-15T17:50:03.472Z,78.59
2022-11-15T17:52:30.563Z,79.05
2022-11-15T17:54:57.018Z,79.35
2022-11-15T17:57:23.455Z,79.39
2022-11-15T17:59:49.902Z,79.65
2022-11-15T18:02:16.665Z,78.92
2022-11-15T18:04:43.099Z,79.09
2022-11-15T18:07:11.573Z,79.09
2022-11-15T18:09:42.115Z,79.15
2022-11-15T18:12:09.180Z,79.07
2022-11-15T18:14:35.685Z,79.23
2022-11-15T18:17:03.949Z,80.03
2022-11-15T18:19:30.445Z,79.97
2022-11-15T18:21:57.010Z,80.90
2022-11-15T18:24:27.119Z,80.97
2022-11-15T18:26:53.697Z,81.74
2022-11-15T18:29:21.250Z,81.71
2022-11-15T18:31:50.249Z,82.28
2022-11-15T18:34:17.753Z,82.25
2022-11-15T18:36:44.406Z,82.76
2022-11-15T18:39:16.326Z,82.93
2022-11-15T18:41:44.574Z,83.67
2022-11-15T18:44:11.013Z,83.71
2022-11-15T18:46:39.164Z,83.59
2022-11-15T18:49:09.531Z,83.21
2022-11-15T18:51:41.675Z,82.84
2022-11-15T18:54:10.646Z,82.71
2022-11-15T18:56:37.748Z,82.76
2022-11-15T18:59:05.155Z,82.28
2022-11-15T19:01:35.726Z,82.11
2022-11-15T19:04:08.333Z,82.52
2022-11-15T19:06:41.227Z,82.03
2022-11-15T19:09:09.142Z,82.15
2022-11-15T19:11:39.255Z,82.23
2022-11-15T19:14:11.202Z,81.82
2022-11-15T19:16:40.103Z,82.22
2022-11-15T19:19:10.645Z,82.08
2022-11-15T19:21:37.244Z,82.22
2022-11-15T19:24:04.079Z,82.63
2022-11-15T19:26:30.607Z,82.88
2022-11-15T19:29:02.122Z,81.97
2022-11-15T19:31:30.354Z,82.51
2022-11-15T19:33:59.496Z,81.49
2022-11-15T19:36:48.012Z,81.57
2022-11-15T19:39:15.444Z,81.78
2022-11-15T19:41:43.471Z,80.89
2022-11-15T19:44:11.575Z,80.19
2022-11-15T19:46:38.279Z,80.15
2022-11-15T19:49:08.059Z,80.38
2022-11-15T19:51:34.571Z,80.13
2022-11-15T19:54:06.342Z,80.25
2022-11-15T19:56:34.808Z,79.86
2022-11-15T19:59:02.402Z,79.12
2022-11-15T20:01:33.087Z,79.16
2022-11-15T20:04:00.492Z,79.07
2022-11-15T20:06:31.168Z,78.56
2022-11-15T20:08:58.069Z,77.77
2022-11-15T20:11:25.760Z,77.32
2022-11-15T20:13:57.366Z,77.30
2022-11-15T20:16:24.053Z,77.44
2022-11-15T20:18:51.540Z,77.53
2022-11-15T20:21:18.837Z,77.54
2022-11-15T20:23:45.636Z,78.24
2022-11-15T20:26:15.344Z,78.11
2022-11-15T20:28:42.138Z,77.96
2022-11-15T20:31:09.845Z,78.61
2022-11-15T20:33:36.461Z,78.50
2022-11-15T20:36:09.573Z,78.63
2022-11-15T20:38:36.191Z,78.71
2022-11-15T20:41:03.128Z,79.15
2022-11-15T20:43:29.664Z,78.83
2022-11-15T20:45:56.107Z,79.52
2022-11-15T20:48:22.933Z,79.37
2022-11-15T20:50:49.590Z,78.85
2022-11-15T20:53:19.170Z,79.10
2022-11-15T20:55:49.033Z,78.51
2022-11-15T20:58:16.872Z,78.55
2022-11-15T21:00:45.488Z,79.16
2022-11-15T21:03:14.001Z,78.96
2022-11-15T21:05:42.867Z,78.96
2022-11-15T21:08:10.629Z,78.30
2022-11-15T21:10:56.053Z,78.21
2022-11-15T21:13:22.756Z,78.64
2022-11-15T21:15:50.214Z,78.43
2022-11-15T21:18:17.001Z,78.04
2022-11-15T21:20:43.537Z,77.90
2022-11-15T21:23:11.501Z,78.04
2022-11-15T21:25:37.985Z,78.54
2022-11-15T21:28:04.454Z,78.75
2022-11-15T21:30:31.227Z,78.38
2022-11-15T21:32:57.705Z,78.41
2022-11-15T21:35:24.380Z,78.39
2022-11-15T21:37:56.473Z,78.37
2022-11-15T21:40:23.658Z,77.34
2022-11-15T21:42:50.037Z,77.69
2022-11-15T21:45:16.755Z,77.94
2022-11-15T21:47:46.132Z,78.51
2022-11-15T21:50:13.813Z,77.84
2022-11-15T21:52:40.716Z,78.02
2022-11-15T21:55:08.549Z,78.17
2022-11-15T21:57:35.058Z,78.04
2022-11-15T22:00:22.279Z,77.44
2022-11-15T22:02:48.788Z,78.07
2022-11-15T22:05:16.118Z,78.33
2022-11-15T22:07:42.629Z,78.41
2022-11-15T22:10:09.452Z,77.77
2022-11-15T22:12:36.282Z,78.04
2022-11-15T22:15:02.995Z,78.80
2022-11-15T22:17:49.437Z,79.05
2022-11-15T22:20:42.931Z,80.07
2022-11-15T22:23:03.027Z,80.15
2022-11-15T22:25:29.659Z,80.90
2022-11-15T22:27:56.547Z,81.21
2022-11-15T22:30:24.201Z,81.07
2022-11-15T22:32:50.664Z,81.64
2022-11-15T22:35:17.336Z,81.46
2022-11-15T22:37:43.757Z,81.37
2022-11-15T22:40:10.562Z,80.96
2022-11-15T22:42:36.999Z,80.71
2022-11-15T22:45:04.040Z,81.38
2022-11-15T22:47:30.489Z,80.06
2022-11-15T22:49:56.960Z,79.37
2022-11-15T22:52:23.469Z,79.42
2022-11-15T22:54:49.975Z,79.59
2022-11-15T22:57:16.605Z,79.48
2022-11-15T22:59:43.295Z,79.64
2022-11-15T23:02:09.742Z,79.52
2022-11-15T23:05:01.487Z,80.15
2022-11-15T23:07:28.331Z,79.12
2022-11-15T23:10:13.457Z,79.11
2022-11-15T23:12:59.104Z,79.37
2022-11-15T23:15:29.524Z,78.64
2022-11-15T23:17:58.782Z,78.30
2022-11-15T23:20:42.539Z,78.57
2022-11-15T23:23:11.226Z,78.61
2022-11-15T23:25:37.765Z,78.90
2022-11-15T23:28:05.172Z,79.41
2022-11-15T23:30:54.252Z,79.42
2022-11-15T23:33:39.859Z,79.77
2022-11-15T23:36:07.319Z,79.60
2022-11-15T23:38:37.063Z,79.92
2022-11-15T23:41:05.304Z,79.69
2022-11-15T23:43:32.244Z,79.85
2022-11-15T23:46:01.953Z,79.73
2022-11-15T23:48:28.706Z,79.89
2022-11-15T23:50:55.210Z,79.70
2022-11-15T23:53:21.669Z,79.97
2022-11-15T23:56:00.597Z,79.04
2022-11-15T23:58:28.417Z,78.77
